Time;durP1;ratioP1;P1;durP2;ratioP2;P2;SDS_P1;SDS_P2;PMS_P1;PMS_P2;Temp;Humidity;BMP_temperature;BMP_pressure;BME280_temperature;BME280_humidity;BME280_pressure;Samples;Min_cycle;Max_cycle;Signal;HPM_P1;HPM_P2
2023/08/05 00:01:30;;;;;;;5.88;3.97;;;13.30;99.90;;;;;;5034004;28;20120;-68
2023/08/05 00:03:56;;;;;;;6.18;4.22;;;13.30;99.90;;;;;;5051190;28;20377;-68
2023/08/05 00:06:22;;;;;;;8.82;4.40;;;13.30;99.90;;;;;;5052278;28;20055;-67
2023/08/05 00:08:47;;;;;;;7.25;3.78;;;13.30;99.90;;;;;;5035776;28;20091;-68
2023/08/05 00:11:13;;;;;;;8.98;4.63;;;13.30;99.90;;;;;;5036903;28;20045;-67
2023/08/05 00:13:39;;;;;;;8.20;4.47;;;13.30;99.90;;;;;;5037577;28;20049;-67
2023/08/05 00:16:07;;;;;;;8.73;4.28;;;13.30;99.90;;;;;;5055705;28;20534;-68
2023/08/05 00:18:33;;;;;;;9.18;4.20;;;13.20;99.90;;;;;;5054620;28;20049;-68
2023/08/05 00:20:59;;;;;;;7.60;4.18;;;13.10;99.90;;;;;;5037771;28;20535;-68
2023/08/05 00:23:24;;;;;;;6.53;4.28;;;13.10;99.90;;;;;;5037085;28;20472;-68
2023/08/05 00:25:53;;;;;;;7.95;4.70;;;13.10;99.90;;;;;;5055345;28;20102;-67
2023/08/05 00:28:19;;;;;;;7.80;4.90;;;13.00;99.90;;;;;;5037836;28;20037;-67
2023/08/05 00:30:45;;;;;;;9.48;4.85;;;13.00;99.90;;;;;;5053720;28;20404;-68
2023/08/05 00:33:11;;;;;;;10.43;4.82;;;13.00;99.90;;;;;;5037323;28;20049;-68
2023/08/05 00:35:38;;;;;;;8.30;4.68;;;12.90;99.90;;;;;;5055011;28;20399;-67
2023/08/05 00:38:04;;;;;;;8.70;4.82;;;12.90;99.90;;;;;;5036672;28;20047;-67
2023/08/05 00:40:30;;;;;;;7.53;4.47;;;12.90;99.90;;;;;;5037752;28;20053;-67
2023/08/05 00:42:55;;;;;;;8.88;4.47;;;12.90;99.90;;;;;;5055064;28;20056;-67
2023/08/05 00:45:21;;;;;;;10.85;5.68;;;12.90;99.90;;;;;;5054456;28;20049;-68
2023/08/05 00:47:47;;;;;;;9.55;5.43;;;12.90;99.90;;;;;;5036668;28;20492;-67
2023/08/05 00:50:14;;;;;;;9.27;5.75;;;13.00;99.90;;;;;;5037367;28;20447;-67
2023/08/05 00:52:41;;;;;;;8.10;5.40;;;13.00;99.90;;;;;;5036472;28;20041;-67
2023/08/05 00:55:07;;;;;;;9.68;5.28;;;13.10;99.90;;;;;;5037302;28;20115;-67
2023/08/05 00:57:34;;;;;;;10.50;5.70;;;13.10;99.90;;;;;;5054862;28;20485;-67
2023/08/05 01:00:00;;;;;;;7.97;5.07;;;13.10;99.90;;;;;;5054393;28;20091;-67
2023/08/05 01:02:26;;;;;;;9.13;5.28;;;13.20;99.90;;;;;;5036305;28;20052;-68
2023/08/05 01:04:51;;;;;;;11.18;5.50;;;13.20;99.90;;;;;;5053521;28;20110;-68
2023/08/05 01:07:20;;;;;;;13.35;4.50;;;13.20;99.90;;;;;;5054263;28;20498;-67
2023/08/05 01:09:46;;;;;;;9.73;5.10;;;13.30;99.90;;;;;;5054604;28;20041;-67
2023/08/05 01:12:12;;;;;;;10.32;5.10;;;13.40;99.90;;;;;;5054899;28;20045;-67
2023/08/05 01:14:37;;;;;;;11.77;5.65;;;13.40;99.90;;;;;;5053143;28;20049;-68
2023/08/05 01:17:03;;;;;;;10.95;5.53;;;13.40;99.90;;;;;;5036725;28;20056;-67
2023/08/05 01:19:30;;;;;;;11.35;5.47;;;13.50;99.90;;;;;;5054742;28;20080;-67
2023/08/05 01:22:18;;;;;;;9.23;5.15;;;13.50;99.90;;;;;;5036104;28;20049;-68
2023/08/05 01:24:58;;;;;;;8.65;5.13;;;13.60;99.90;;;;;;5036104;28;20049;-67
2023/08/05 01:27:24;;;;;;;9.25;4.93;;;13.60;99.90;;;;;;5050813;28;20049;-67
2023/08/05 01:29:51;;;;;;;9.18;5.45;;;13.70;99.90;;;;;;5052954;28;20045;-68
2023/08/05 01:32:21;;;;;;;9.35;5.38;;;13.70;99.90;;;;;;5054626;28;20037;-67
2023/08/05 01:34:52;;;;;;;7.10;4.68;;;13.70;99.90;;;;;;5052482;28;20079;-67
2023/08/05 01:37:18;;;;;;;8.88;5.30;;;13.80;99.90;;;;;;5052948;28;20132;-68
2023/08/05 01:39:44;;;;;;;8.68;5.00;;;13.80;99.90;;;;;;5052861;28;20072;-68
2023/08/05 01:42:12;;;;;;;8.75;5.28;;;13.80;99.90;;;;;;5052487;28;20492;-67
2023/08/05 01:44:38;;;;;;;11.75;5.65;;;13.90;99.90;;;;;;5053910;28;20443;-68
2023/08/05 01:47:04;;;;;;;11.98;5.50;;;13.80;99.90;;;;;;5054312;28;20040;-68
2023/08/05 01:49:30;;;;;;;11.30;5.28;;;13.90;99.90;;;;;;5052345;28;20068;-68
2023/08/05 01:51:59;;;;;;;10.35;5.82;;;13.90;99.90;;;;;;5052507;28;20441;-68
2023/08/05 01:54:24;;;;;;;8.18;5.35;;;13.90;99.90;;;;;;5053848;28;20052;-68
2023/08/05 01:56:50;;;;;;;8.40;5.28;;;13.90;99.90;;;;;;5051725;28;20037;-68
2023/08/05 01:59:18;;;;;;;12.05;5.40;;;13.90;99.90;;;;;;5051876;28;20099;-68
2023/08/05 02:01:46;;;;;;;9.80;5.25;;;13.90;99.90;;;;;;5053578;28;20033;-69
2023/08/05 02:04:17;;;;;;;8.13;4.90;;;14.00;99.90;;;;;;5052995;28;20053;-68
2023/08/05 02:06:43;;;;;;;8.55;5.05;;;14.00;99.90;;;;;;5053148;28;20068;-67
2023/08/05 02:09:09;;;;;;;8.85;4.82;;;14.00;99.90;;;;;;5054039;28;20476;-68
2023/08/05 02:11:38;;;;;;;7.05;4.70;;;14.10;99.90;;;;;;5057589;28;20144;-68
2023/08/05 02:14:04;;;;;;;11.32;4.95;;;14.10;99.90;;;;;;5054089;28;20045;-67
2023/08/05 02:16:33;;;;;;;10.30;5.20;;;14.00;99.90;;;;;;5051625;28;20118;-68
2023/08/05 02:19:02;;;;;;;8.57;4.82;;;14.10;99.90;;;;;;5051784;28;20111;-67
2023/08/05 02:21:27;;;;;;;10.38;5.20;;;14.10;99.90;;;;;;5051938;28;20045;-68
2023/08/05 02:23:53;;;;;;;9.00;4.90;;;14.10;99.90;;;;;;5051160;28;20113;-67
2023/08/05 02:26:19;;;;;;;8.93;5.03;;;14.10;99.90;;;;;;5051987;28;20045;-68
2023/08/05 02:28:46;;;;;;;8.77;5.03;;;14.20;99.90;;;;;;5051223;28;20049;-68
2023/08/05 02:31:13;;;;;;;10.13;5.15;;;14.20;99.90;;;;;;5051083;28;20050;-68
2023/08/05 02:33:38;;;;;;;11.43;5.03;;;14.20;99.90;;;;;;5051782;28;20053;-68
2023/08/05 02:36:04;;;;;;;9.73;5.47;;;14.20;99.90;;;;;;5051882;28;20055;-67
2023/08/05 02:38:30;;;;;;;7.75;5.10;;;14.20;99.90;;;;;;5051678;28;20114;-67
2023/08/05 02:40:57;;;;;;;9.60;5.00;;;14.30;99.90;;;;;;5051452;28;20068;-67
2023/08/05 02:43:26;;;;;;;8.60;5.15;;;14.30;99.90;;;;;;5053261;28;20044;-68
2023/08/05 02:45:56;;;;;;;9.65;4.88;;;14.30;99.90;;;;;;5051977;28;20047;-68
2023/08/05 02:48:25;;;;;;;10.88;4.90;;;14.30;99.90;;;;;;5053072;28;20045;-67
2023/08/05 02:50:52;;;;;;;8.82;4.85;;;14.30;99.90;;;;;;5052419;28;20041;-67
2023/08/05 02:53:18;;;;;;;9.80;5.43;;;14.30;99.90;;;;;;5051087;28;20080;-68
2023/08/05 02:55:44;;;;;;;11.27;5.28;;;14.40;99.90;;;;;;5051045;28;20086;-67
2023/08/05 02:58:14;;;;;;;7.90;4.80;;;14.30;99.90;;;;;;5050908;28;20044;-67
2023/08/05 03:00:40;;;;;;;9.25;4.85;;;14.30;99.90;;;;;;5052493;28;20049;-68
2023/08/05 03:03:10;;;;;;;9.93;4.60;;;14.30;99.90;;;;;;5051418;28;20132;-67
2023/08/05 03:05:36;;;;;;;9.32;4.78;;;14.40;99.90;;;;;;5049945;28;20484;-68
2023/08/05 03:08:02;;;;;;;8.60;4.63;;;14.40;99.90;;;;;;5051817;28;20506;-68
2023/08/05 03:10:28;;;;;;;9.55;5.30;;;14.40;99.90;;;;;;5051561;28;20119;-68
2023/08/05 03:12:54;;;;;;;10.57;5.38;;;14.40;99.90;;;;;;5050455;28;20037;-68
2023/08/05 03:15:19;;;;;;;8.80;5.40;;;14.40;99.90;;;;;;5052520;28;20481;-67
2023/08/05 03:17:45;;;;;;;10.93;4.80;;;14.40;99.90;;;;;;5050454;28;20061;-67
2023/08/05 03:20:28;;;;;;;10.95;5.15;;;14.50;99.90;;;;;;5051953;28;20043;-68
2023/08/05 03:22:57;;;;;;;7.90;4.60;;;14.50;99.90;;;;;;5051591;28;20045;-67
2023/08/05 03:25:28;;;;;;;7.38;4.80;;;14.50;99.90;;;;;;5051074;28;20640;-68
2023/08/05 03:27:54;;;;;;;8.38;4.50;;;14.50;99.90;;;;;;5049314;28;20059;-67
2023/08/05 03:30:20;;;;;;;8.50;4.95;;;14.50;99.90;;;;;;5051893;28;20037;-68
2023/08/05 03:32:49;;;;;;;8.75;5.32;;;14.60;99.90;;;;;;5051079;28;20136;-68
2023/08/05 03:35:15;;;;;;;10.80;5.35;;;14.60;99.90;;;;;;5033685;28;20055;-68
2023/08/05 03:37:44;;;;;;;9.40;5.32;;;14.60;99.90;;;;;;5052081;28;20477;-68
2023/08/05 03:40:10;;;;;;;9.95;5.25;;;14.60;99.90;;;;;;5034416;28;20403;-68
2023/08/05 03:42:36;;;;;;;8.23;4.80;;;14.60;99.90;;;;;;5051357;28;20045;-68
2023/08/05 03:45:04;;;;;;;7.82;4.72;;;14.60;99.90;;;;;;5056413;28;20106;-68
2023/08/05 03:47:30;;;;;;;6.90;4.68;;;14.60;99.90;;;;;;5037002;28;20567;-68
2023/08/05 03:49:56;;;;;;;9.40;5.13;;;14.60;99.90;;;;;;5056021;28;20052;-67
2023/08/05 03:52:21;;;;;;;8.40;5.20;;;14.50;99.90;;;;;;5056102;28;20048;-68
2023/08/05 03:54:47;;;;;;;9.50;5.10;;;14.60;99.90;;;;;;5037201;28;20051;-68
2023/08/05 03:57:16;;;;;;;8.93;5.40;;;14.50;99.90;;;;;;5038424;28;20439;-68
2023/08/05 03:59:42;;;;;;;11.88;5.88;;;14.60;99.90;;;;;;5056186;28;20041;-67
2023/08/05 04:02:11;;;;;;;10.52;5.38;;;14.60;99.90;;;;;;5055456;28;20071;-67
2023/08/05 04:04:37;;;;;;;11.18;4.80;;;14.60;99.90;;;;;;5037472;28;20049;-68
2023/08/05 04:07:03;;;;;;;12.32;4.60;;;14.60;99.90;;;;;;5052375;28;20060;-67
2023/08/05 04:09:28;;;;;;;7.43;4.35;;;14.70;99.90;;;;;;5055155;28;20086;-68
2023/08/05 04:12:01;;;;;;;6.88;4.13;;;14.70;99.90;;;;;;5037534;28;20045;-67
2023/08/05 04:14:26;;;;;;;8.95;4.35;;;14.70;99.90;;;;;;5055675;28;20048;-68
2023/08/05 04:16:54;;;;;;;8.43;3.85;;;14.80;99.90;;;;;;5037105;28;20408;-68
2023/08/05 04:19:25;;;;;;;8.07;4.60;;;14.90;99.90;;;;;;5038166;28;20112;-67
2023/08/05 04:21:52;;;;;;;9.25;4.00;;;14.90;99.90;;;;;;5037562;28;20552;-68
2023/08/05 04:24:22;;;;;;;10.63;3.90;;;14.80;99.90;;;;;;5036473;28;20044;-68
2023/08/05 04:26:50;;;;;;;8.43;4.47;;;14.90;99.90;;;;;;5055011;28;20132;-67
2023/08/05 04:29:18;;;;;;;5.88;3.58;;;14.80;99.90;;;;;;5055763;28;20057;-68
2023/08/05 04:31:45;;;;;;;9.75;4.65;;;14.80;99.90;;;;;;5054340;28;20032;-67
2023/08/05 04:34:11;;;;;;;7.38;3.88;;;14.80;99.90;;;;;;5055540;28;20041;-68
2023/08/05 04:36:37;;;;;;;10.50;4.63;;;14.80;99.90;;;;;;5036348;28;20037;-68
2023/08/05 04:39:03;;;;;;;8.55;4.30;;;14.90;99.90;;;;;;5037390;28;20057;-67
2023/08/05 04:41:30;;;;;;;9.90;4.30;;;14.90;99.90;;;;;;5055158;28;20036;-68
2023/08/05 04:43:58;;;;;;;6.45;3.95;;;14.90;99.90;;;;;;5035334;28;20067;-68
2023/08/05 04:46:24;;;;;;;9.57;3.90;;;14.90;99.90;;;;;;5055348;28;20072;-68
2023/08/05 04:48:50;;;;;;;8.20;4.15;;;14.90;99.90;;;;;;5055250;28;20077;-67
2023/08/05 04:51:16;;;;;;;10.23;3.95;;;14.90;99.90;;;;;;5054454;28;20520;-68
2023/08/05 04:53:43;;;;;;;6.65;3.63;;;15.00;99.90;;;;;;5036437;28;20189;-68
2023/08/05 04:56:10;;;;;;;8.52;3.75;;;15.00;99.90;;;;;;5054701;28;20485;-68
2023/08/05 04:58:35;;;;;;;6.07;3.22;;;15.00;99.90;;;;;;5036481;28;20437;-68
2023/08/05 05:01:01;;;;;;;8.20;3.72;;;15.00;99.90;;;;;;5054121;28;20060;-68
2023/08/05 05:03:26;;;;;;;7.10;3.35;;;15.10;99.90;;;;;;5054901;28;20162;-67
2023/08/05 05:05:52;;;;;;;7.45;3.80;;;15.00;99.90;;;;;;5053760;28;20044;-68
2023/08/05 05:08:18;;;;;;;6.28;3.25;;;15.70;99.90;;;;;;5037012;28;20041;-68
2023/08/05 05:10:47;;;;;;;5.38;3.47;;;15.10;99.90;;;;;;5054528;28;20083;-68
2023/08/05 05:13:12;;;;;;;7.35;3.30;;;15.10;99.90;;;;;;5035252;28;20049;-67
2023/08/05 05:15:38;;;;;;;9.27;4.45;;;15.10;99.90;;;;;;5054433;28;20484;-67
2023/08/05 05:18:04;;;;;;;5.93;3.35;;;15.00;99.90;;;;;;5054788;28;20076;-68
2023/08/05 05:20:30;;;;;;;6.32;3.70;;;15.00;99.90;;;;;;5053978;28;20076;-68
2023/08/05 05:22:55;;;;;;;8.50;3.70;;;15.00;99.90;;;;;;5035942;28;20060;-67
2023/08/05 05:25:22;;;;;;;7.35;3.85;;;15.10;99.90;;;;;;5036605;28;20051;-68
2023/08/05 05:27:48;;;;;;;7.85;3.92;;;15.20;99.90;;;;;;5035721;28;20070;-68
2023/08/05 05:30:13;;;;;;;7.60;3.80;;;15.30;99.90;;;;;;5036746;28;20515;-67
2023/08/05 05:32:39;;;;;;;7.10;3.60;;;15.40;99.90;;;;;;5035504;28;20194;-68
2023/08/05 05:35:05;;;;;;;6.88;3.42;;;15.50;99.90;;;;;;5035467;28;20056;-67
2023/08/05 05:37:31;;;;;;;8.02;3.70;;;15.60;99.90;;;;;;5036407;28;20059;-67
2023/08/05 05:39:57;;;;;;;7.78;3.88;;;15.60;99.90;;;;;;5053274;28;20227;-67
2023/08/05 05:42:25;;;;;;;6.97;4.00;;;15.60;99.90;;;;;;5035946;28;20044;-67
2023/08/05 05:44:53;;;;;;;8.38;3.70;;;15.60;99.90;;;;;;5035770;28;20049;-67
2023/08/05 05:47:22;;;;;;;6.90;3.75;;;15.60;99.90;;;;;;5053312;28;20095;-68
2023/08/05 05:49:47;;;;;;;7.82;4.07;;;15.70;99.90;;;;;;5053559;28;20044;-67
2023/08/05 05:52:16;;;;;;;7.00;3.90;;;15.70;99.90;;;;;;5054010;28;20044;-68
2023/08/05 05:54:43;;;;;;;6.45;3.55;;;15.70;99.90;;;;;;5052667;28;20588;-68
2023/08/05 05:57:10;;;;;;;7.25;4.00;;;15.80;99.90;;;;;;5054048;28;20052;-68
2023/08/05 05:59:36;;;;;;;6.72;4.18;;;15.80;99.90;;;;;;5035761;28;20495;-68
2023/08/05 06:02:05;;;;;;;6.80;3.75;;;15.80;99.90;;;;;;5052950;28;20116;-67
2023/08/05 06:04:31;;;;;;;6.50;3.78;;;15.80;99.90;;;;;;5053630;28;20045;-68
2023/08/05 06:06:56;;;;;;;8.27;3.88;;;15.90;99.90;;;;;;5034147;28;20119;-68
2023/08/05 06:09:22;;;;;;;7.50;3.25;;;16.00;99.90;;;;;;5035390;28;20055;-67
2023/08/05 06:11:53;;;;;;;5.68;3.67;;;16.10;99.90;;;;;;5053190;28;20048;-67
2023/08/05 06:14:20;;;;;;;7.75;4.00;;;16.20;99.90;;;;;;5035613;28;20049;-68
2023/08/05 06:16:46;;;;;;;7.80;3.72;;;16.30;99.90;;;;;;5034268;28;20446;-67
2023/08/05 06:19:12;;;;;;;8.68;3.75;;;16.30;99.90;;;;;;5053446;28;20037;-67
2023/08/05 06:21:38;;;;;;;5.35;3.67;;;16.30;99.90;;;;;;5053064;28;20053;-68
2023/08/05 06:24:04;;;;;;;6.57;3.35;;;16.40;99.90;;;;;;5034421;28;20045;-68
2023/08/05 06:26:30;;;;;;;6.50;3.45;;;16.60;99.90;;;;;;5053213;28;20401;-68
2023/08/05 06:28:57;;;;;;;6.13;3.38;;;16.60;99.90;;;;;;5053199;28;20431;-68
2023/08/05 06:31:22;;;;;;;7.65;3.80;;;16.70;99.90;;;;;;5034514;28;20057;-68
2023/08/05 06:33:50;;;;;;;7.72;3.55;;;16.70;99.90;;;;;;5034547;28;20044;-68
2023/08/05 06:36:16;;;;;;;9.55;3.60;;;17.00;99.90;;;;;;5034503;28;20052;-69
2023/08/05 06:38:42;;;;;;;5.65;2.95;;;16.90;99.90;;;;;;5035180;28;20101;-67
2023/08/05 06:41:08;;;;;;;6.47;3.28;;;17.00;99.90;;;;;;5035513;28;20072;-68
2023/08/05 06:43:33;;;;;;;6.82;2.80;;;17.00;99.90;;;;;;5033915;28;20044;-68
2023/08/05 06:45:59;;;;;;;7.10;3.13;;;16.80;99.90;;;;;;5052264;28;20033;-67
2023/08/05 06:48:25;;;;;;;7.07;2.85;;;16.80;99.90;;;;;;5053119;28;20106;-68
2023/08/05 06:50:51;;;;;;;6.13;2.85;;;16.90;99.90;;;;;;5051512;28;20047;-68
2023/08/05 06:53:19;;;;;;;7.50;2.72;;;17.10;99.90;;;;;;5034901;28;20041;-68
2023/08/05 06:55:45;;;;;;;5.35;2.53;;;17.10;99.90;;;;;;5052573;28;20101;-68
2023/08/05 06:58:11;;;;;;;7.10;2.60;;;17.00;99.90;;;;;;5050549;28;20144;-68
2023/08/05 07:00:37;;;;;;;7.50;2.88;;;17.10;99.90;;;;;;5034687;28;20542;-68
2023/08/05 07:03:06;;;;;;;5.32;2.45;;;17.20;99.90;;;;;;5035020;28;20116;-67
2023/08/05 07:05:32;;;;;;;10.00;3.20;;;17.40;99.90;;;;;;5033585;28;20048;-67
2023/08/05 07:08:01;;;;;;;5.25;3.03;;;17.40;99.90;;;;;;5052889;28;20045;-68
2023/08/05 07:10:27;;;;;;;8.27;3.15;;;17.40;99.90;;;;;;5034987;28;20044;-68
2023/08/05 07:12:52;;;;;;;4.60;2.63;;;17.50;99.90;;;;;;5033245;28;20045;-68
2023/08/05 07:15:18;;;;;;;6.65;2.75;;;17.60;99.90;;;;;;5052246;28;20041;-68
2023/08/05 07:17:44;;;;;;;5.00;2.70;;;17.60;99.90;;;;;;5034200;28;20044;-68
2023/08/05 07:20:10;;;;;;;6.13;2.63;;;17.70;99.90;;;;;;5051433;28;20107;-68
2023/08/05 07:22:39;;;;;;;6.63;2.72;;;17.70;99.90;;;;;;5034456;28;20099;-68
2023/08/05 07:25:07;;;;;;;7.35;2.58;;;17.80;99.90;;;;;;5034739;28;20041;-69
2023/08/05 07:27:36;;;;;;;6.93;2.60;;;17.80;99.90;;;;;;5051363;28;20136;-69
2023/08/05 07:30:02;;;;;;;6.68;2.65;;;17.80;99.90;;;;;;5052852;28;20456;-68
2023/08/05 07:32:31;;;;;;;4.20;2.42;;;17.70;99.90;;;;;;5052383;28;20099;-68
2023/08/05 07:34:56;;;;;;;7.07;2.65;;;17.80;99.90;;;;;;5035645;28;20045;-68
2023/08/05 07:37:23;;;;;;;5.18;2.47;;;17.80;99.90;;;;;;5053583;28;20029;-67
2023/08/05 07:39:50;;;;;;;6.72;2.72;;;17.70;99.90;;;;;;5035610;28;20081;-67
2023/08/05 07:42:18;;;;;;;6.35;3.30;;;17.70;99.90;;;;;;5035323;28;20124;-68
2023/08/05 07:44:52;;;;;;;4.53;3.00;;;17.70;99.90;;;;;;5053258;28;20116;-68
2023/08/05 07:47:18;;;;;;;4.60;2.47;;;17.80;99.90;;;;;;5051838;28;20064;-67
2023/08/05 07:49:44;;;;;;;5.53;2.70;;;17.90;99.90;;;;;;5034863;28;20053;-67
2023/08/05 07:52:10;;;;;;;7.05;3.10;;;17.90;99.90;;;;;;5034394;28;20488;-67
2023/08/05 07:54:39;;;;;;;6.78;2.78;;;17.90;99.90;;;;;;5051124;28;20133;-67
2023/08/05 07:57:05;;;;;;;5.47;2.88;;;18.00;99.90;;;;;;5033548;28;20140;-67
2023/08/05 07:59:31;;;;;;;5.68;2.42;;;18.10;99.90;;;;;;5034548;28;20136;-68
2023/08/05 08:01:57;;;;;;;5.57;2.72;;;18.20;99.90;;;;;;5050495;28;20495;-67
2023/08/05 08:04:23;;;;;;;7.03;2.70;;;18.30;99.90;;;;;;5052137;28;20091;-67
2023/08/05 08:06:48;;;;;;;6.10;2.95;;;18.20;99.90;;;;;;5051809;28;20037;-67
2023/08/05 08:09:14;;;;;;;6.03;2.90;;;18.20;99.90;;;;;;5033788;28;20484;-67
2023/08/05 08:11:41;;;;;;;8.88;3.00;;;18.30;99.90;;;;;;5051905;28;20045;-67
2023/08/05 08:14:07;;;;;;;6.25;2.72;;;18.50;99.90;;;;;;5052192;28;20087;-67
2023/08/05 08:16:32;;;;;;;4.53;2.50;;;18.70;99.90;;;;;;5033291;28;20423;-67
2023/08/05 08:19:05;;;;;;;7.75;2.78;;;18.70;99.90;;;;;;5033420;28;20400;-67
2023/08/05 08:21:31;;;;;;;4.80;2.70;;;18.70;99.90;;;;;;5051879;28;20397;-67
2023/08/05 08:23:57;;;;;;;5.20;2.58;;;19.00;99.90;;;;;;5033195;28;20044;-68
2023/08/05 08:26:23;;;;;;;6.15;2.72;;;19.00;99.90;;;;;;5051851;28;20081;-68
2023/08/05 08:28:48;;;;;;;6.00;2.72;;;19.20;99.90;;;;;;5050446;28;20041;-68
2023/08/05 08:31:14;;;;;;;4.85;2.33;;;19.20;99.90;;;;;;5055577;28;20036;-68
2023/08/05 08:33:43;;;;;;;6.80;2.85;;;19.40;99.90;;;;;;5055506;28;20416;-67
2023/08/05 08:36:08;;;;;;;4.88;2.70;;;19.60;99.90;;;;;;5054807;28;20052;-67
2023/08/05 08:38:34;;;;;;;4.45;2.47;;;19.80;99.90;;;;;;5054999;28;20045;-67
2023/08/05 08:41:02;;;;;;;4.78;2.45;;;19.80;99.90;;;;;;5037384;28;20045;-68
2023/08/05 08:43:31;;;;;;;4.93;2.60;;;19.80;99.90;;;;;;5036795;28;20108;-67
2023/08/05 08:46:02;;;;;;;4.75;2.92;;;19.80;99.90;;;;;;5055148;28;20029;-67
2023/08/05 08:48:31;;;;;;;6.70;2.35;;;19.70;99.90;;;;;;5055217;28;20472;-67
2023/08/05 08:50:58;;;;;;;4.75;2.72;;;19.80;99.90;;;;;;5054156;28;20481;-68
2023/08/05 08:53:25;;;;;;;5.43;2.65;;;20.10;99.90;;;;;;5055017;28;20435;-68
2023/08/05 08:55:55;;;;;;;5.78;2.40;;;20.40;99.90;;;;;;5054001;28;20107;-68
2023/08/05 08:58:21;;;;;;;6.18;3.00;;;20.50;99.90;;;;;;5036374;28;20140;-68
2023/08/05 09:00:48;;;;;;;5.97;2.72;;;20.70;99.90;;;;;;5054701;28;20068;-68
2023/08/05 09:03:14;;;;;;;4.80;2.35;;;20.70;99.90;;;;;;5054872;28;20045;-68
2023/08/05 09:05:49;;;;;;;6.35;2.47;;;20.70;99.90;;;;;;5035617;28;20049;-68
2023/08/05 09:08:15;;;;;;;5.03;2.40;;;20.70;99.90;;;;;;5054821;28;20395;-67
2023/08/05 09:10:44;;;;;;;4.65;2.40;;;20.80;99.90;;;;;;5036832;28;20507;-67
2023/08/05 09:13:17;;;;;;;4.72;2.65;;;20.90;99.90;;;;;;5053957;28;20045;-67
2023/08/05 09:15:43;;;;;;;6.72;2.72;;;20.80;99.90;;;;;;5036443;28;20052;-67
2023/08/05 09:18:09;;;;;;;8.20;2.80;;;20.80;99.90;;;;;;5035575;28;20856;-67
2023/08/05 09:20:38;;;;;;;6.25;2.92;;;20.70;99.90;;;;;;5054554;28;20041;-67
2023/08/05 09:23:05;;;;;;;5.60;2.63;;;20.50;99.90;;;;;;5036663;28;20041;-67
2023/08/05 09:25:32;;;;;;;4.78;3.03;;;20.30;99.90;;;;;;5053302;28;20159;-67
2023/08/05 09:28:00;;;;;;;5.13;2.88;;;20.20;99.90;;;;;;5036544;28;20477;-67
2023/08/05 09:30:26;;;;;;;6.88;2.85;;;20.20;99.90;;;;;;5036360;28;20450;-68
2023/08/05 09:32:53;;;;;;;4.13;2.60;;;20.20;99.90;;;;;;5053249;28;20141;-67
2023/08/05 09:35:20;;;;;;;5.80;2.70;;;20.40;99.90;;;;;;5036277;28;20071;-67
2023/08/05 09:37:52;;;;;;;6.85;3.30;;;20.30;99.90;;;;;;5051739;28;20489;-67
2023/08/05 09:40:24;;;;;;;4.50;2.42;;;20.00;99.90;;;;;;5052942;28;20045;-68
2023/08/05 09:42:51;;;;;;;4.47;2.75;;;20.00;99.90;;;;;;5034959;28;20041;-68
2023/08/05 09:45:22;;;;;;;4.97;2.80;;;19.90;99.90;;;;;;5036139;28;20075;-68
2023/08/05 09:47:52;;;;;;;4.80;3.03;;;19.90;99.90;;;;;;5035068;28;20496;-68
2023/08/05 09:50:24;;;;;;;4.47;2.83;;;20.00;99.90;;;;;;5036579;28;20378;-68
2023/08/05 09:52:56;;;;;;;4.78;2.80;;;20.00;99.90;;;;;;5052653;28;20561;-67
2023/08/05 09:55:22;;;;;;;5.97;2.75;;;19.90;99.90;;;;;;5035286;28;20049;-67
2023/08/05 09:57:48;;;;;;;5.47;2.92;;;19.80;99.90;;;;;;5053252;28;20481;-68
2023/08/05 10:00:15;;;;;;;4.95;2.85;;;20.10;99.90;;;;;;5053072;28;20062;-68
2023/08/05 10:02:45;;;;;;;5.68;2.83;;;20.50;99.90;;;;;;5035519;28;20120;-67
2023/08/05 10:05:12;;;;;;;5.22;2.35;;;20.80;99.90;;;;;;5053890;28;20503;-67
2023/08/05 10:07:40;;;;;;;4.43;2.75;;;21.40;99.90;;;;;;5052108;28;20512;-67
2023/08/05 10:10:12;;;;;;;3.83;2.70;;;21.60;99.90;;;;;;5036001;28;20179;-67
2023/08/05 10:12:44;;;;;;;8.20;2.92;;;21.60;99.90;;;;;;5053371;28;20044;-67
2023/08/05 10:15:17;;;;;;;5.75;2.70;;;21.50;99.90;;;;;;5034465;28;20041;-68
2023/08/05 10:17:43;;;;;;;4.53;2.78;;;21.10;99.90;;;;;;5034886;28;20087;-67
2023/08/05 10:20:12;;;;;;;5.65;2.83;;;20.90;99.90;;;;;;5053423;28;20439;-67
2023/08/05 10:22:58;;;;;;;4.70;2.58;;;20.80;99.90;;;;;;5034592;28;20135;-67
2023/08/05 10:25:42;;;;;;;6.53;2.65;;;20.80;99.90;;;;;;5053429;28;20045;-67
2023/08/05 10:28:23;;;;;;;4.50;3.00;;;20.90;99.90;;;;;;5052690;28;20049;-67
2023/08/05 10:30:50;;;;;;;4.10;2.65;;;20.90;99.90;;;;;;5035255;28;20056;-68
2023/08/05 10:33:16;;;;;;;6.93;2.85;;;21.00;99.90;;;;;;5034271;28;20060;-68
2023/08/05 10:35:45;;;;;;;5.18;2.72;;;21.10;99.90;;;;;;5052337;28;20124;-67
2023/08/05 10:38:16;;;;;;;4.75;3.03;;;21.00;99.90;;;;;;5035293;28;20068;-67
2023/08/05 10:40:51;;;;;;;4.50;2.72;;;21.00;99.90;;;;;;5052994;28;20503;-67
2023/08/05 10:43:38;;;;;;;6.15;2.90;;;21.10;99.90;;;;;;5034439;28;20142;-67
2023/08/05 10:46:06;;;;;;;;;;;21.00;99.90;;;;;;5053214;28;20052;-68
2023/08/05 10:48:47;;;;;;;5.47;2.60;;;20.90;99.90;;;;;;5052782;28;19916;-68
2023/08/05 10:51:13;;;;;;;5.80;2.30;;;20.80;99.90;;;;;;5034369;28;20123;-67
2023/08/05 10:53:43;;;;;;;4.72;2.47;;;20.80;99.90;;;;;;5034142;28;20057;-67
2023/08/05 10:56:13;;;;;;;5.05;2.90;;;20.90;99.90;;;;;;5051820;28;20048;-68
2023/08/05 10:58:48;;;;;;;5.20;2.80;;;21.00;99.90;;;;;;5033648;28;20056;-67
2023/08/05 11:01:14;;;;;;;8.40;2.90;;;21.10;99.90;;;;;;5052835;28;20045;-67
2023/08/05 11:03:56;;;;;;;4.88;2.63;;;21.20;99.90;;;;;;5051653;28;20155;-67
2023/08/05 11:06:24;;;;;;;5.75;2.85;;;21.30;99.90;;;;;;5035025;28;20389;-67
2023/08/05 11:08:59;;;;;;;6.03;2.95;;;21.40;99.90;;;;;;5052262;28;20134;-67
2023/08/05 11:11:26;;;;;;;4.75;2.80;;;21.30;99.90;;;;;;5051589;28;20406;-67
2023/08/05 11:13:54;;;;;;;5.15;2.58;;;21.40;99.90;;;;;;5034305;28;20060;-68
2023/08/05 11:16:19;;;;;;;5.68;2.75;;;21.30;99.90;;;;;;5034749;28;20041;-67
2023/08/05 11:18:54;;;;;;;5.72;3.00;;;21.20;99.90;;;;;;5033646;28;20045;-67
2023/08/05 11:21:20;;;;;;;6.63;3.00;;;21.10;99.90;;;;;;5034924;28;20492;-67
2023/08/05 11:23:46;;;;;;;4.47;2.60;;;20.90;99.90;;;;;;5017216;28;20516;-67
2023/08/05 11:26:20;;;;;;;4.18;2.78;;;20.80;99.90;;;;;;5051406;28;20049;-67
2023/08/05 11:28:47;;;;;;;4.63;2.92;;;20.70;99.90;;;;;;5052149;28;20053;-69
2023/08/05 11:31:23;;;;;;;6.07;3.45;;;20.70;99.90;;;;;;5052269;28;20496;-67
2023/08/05 11:33:51;;;;;;;5.10;3.00;;;20.80;99.90;;;;;;5032835;28;20049;-68
2023/08/05 11:36:22;;;;;;;4.55;2.83;;;20.70;99.90;;;;;;5034696;28;20080;-67
2023/08/05 11:38:50;;;;;;;5.18;3.10;;;20.60;99.90;;;;;;5033544;28;20041;-67
2023/08/05 11:41:16;;;;;;;4.63;3.17;;;20.40;99.90;;;;;;5052190;28;20087;-67
2023/08/05 11:43:42;;;;;;;6.07;2.92;;;20.50;99.90;;;;;;5033346;28;20045;-67
2023/08/05 11:46:26;;;;;;;3.80;2.80;;;20.40;99.90;;;;;;5051227;28;20048;-67
2023/08/05 11:49:14;;;;;;;7.13;3.20;;;20.50;99.90;;;;;;5034303;28;20049;-67
2023/08/05 11:51:43;;;;;;;5.28;2.78;;;20.70;99.90;;;;;;5051270;28;20041;-67
2023/08/05 11:54:09;;;;;;;4.90;3.15;;;20.60;99.90;;;;;;5033177;28;20085;-68
2023/08/05 11:56:35;;;;;;;4.13;2.85;;;20.50;99.90;;;;;;5033979;28;20091;-67
2023/08/05 11:59:00;;;;;;;6.85;3.30;;;20.60;99.90;;;;;;5052214;28;20107;-67
2023/08/05 12:01:34;;;;;;;4.95;3.05;;;20.40;99.90;;;;;;5032992;28;20373;-67
2023/08/05 12:04:07;;;;;;;5.43;3.30;;;20.30;99.90;;;;;;5034259;28;20041;-68
2023/08/05 12:06:32;;;;;;;5.60;4.07;;;20.30;99.90;;;;;;5055330;28;20037;-67
2023/08/05 12:08:59;;;;;;;5.28;3.60;;;20.20;99.90;;;;;;5037159;28;20129;-67
2023/08/05 12:11:26;;;;;;;5.85;3.53;;;20.10;99.90;;;;;;5056113;28;20104;-67
2023/08/05 12:13:52;;;;;;;6.35;3.65;;;20.10;99.90;;;;;;5054738;28;20060;-68
2023/08/05 12:16:18;;;;;;;6.50;3.90;;;20.10;99.90;;;;;;5055670;28;20041;-68
2023/08/05 12:18:47;;;;;;;6.63;4.25;;;20.00;99.90;;;;;;5055706;28;20088;-68
2023/08/05 12:21:14;;;;;;;6.97;4.45;;;19.90;99.90;;;;;;5055156;28;20072;-67
2023/08/05 12:23:43;;;;;;;5.72;4.05;;;20.00;99.90;;;;;;5055444;28;20049;-68
2023/08/05 12:26:25;;;;;;;8.25;4.30;;;19.90;99.90;;;;;;5055677;28;20060;-68
2023/08/05 12:28:51;;;;;;;6.88;3.70;;;19.90;99.90;;;;;;5054815;28;20873;-68
2023/08/05 12:31:17;;;;;;;5.43;3.67;;;19.80;99.90;;;;;;5037559;28;20506;-68
2023/08/05 12:33:43;;;;;;;7.70;4.25;;;19.80;99.90;;;;;;5055271;28;20132;-67
2023/08/05 12:36:09;;;;;;;8.50;4.13;;;19.70;99.90;;;;;;5036018;28;20033;-68
2023/08/05 12:38:34;;;;;;;5.97;3.80;;;19.80;99.90;;;;;;5037048;28;20052;-68
2023/08/05 12:41:00;;;;;;;5.25;3.83;;;19.90;99.90;;;;;;5055324;28;20060;-68
2023/08/05 12:43:26;;;;;;;5.57;3.58;;;19.90;99.90;;;;;;5054023;28;20045;-68
2023/08/05 12:45:51;;;;;;;5.20;3.80;;;19.90;99.90;;;;;;5036970;28;20056;-68
2023/08/05 12:48:18;;;;;;;5.47;3.72;;;19.90;99.90;;;;;;5037329;28;20048;-67